sensor_id;sensor_type;location;lat;lon;timestamp;P1;durP1;ratioP1;P2;durP2;ratioP2
21170;SDS011;10743;52.160;20.910;2022-11-14T00:01:08;191.97;;;59.87;;
21170;SDS011;10743;52.160;20.910;2022-11-14T00:03:57;192.17;;;60.57;;
21170;SDS011;10743;52.160;20.910;2022-11-14T00:06:42;195.07;;;61.70;;
21170;SDS011;10743;52.160;20.910;2022-11-14T00:09:28;196.03;;;62.30;;
21170;SDS011;10743;52.160;20.910;2022-11-14T00:12:16;183.90;;;59.33;;
21170;SDS011;10743;52.160;20.910;2022-11-14T00:15:02;185.53;;;59.43;;
21170;SDS011;10743;52.160;20.910;2022-11-14T00:17:48;187.20;;;58.93;;
21170;SDS011;10743;52.160;20.910;2022-11-14T00:20:40;191.00;;;58.90;;
21170;SDS011;10743;52.160;20.910;2022-11-14T00:23:26;187.43;;;58.50;;
21170;SDS011;10743;52.160;20.910;2022-11-14T00:26:11;191.83;;;59.07;;
21170;SDS011;10743;52.160;20.910;2022-11-14T00:28:57;185.73;;;58.63;;
21170;SDS011;10743;52.160;20.910;2022-11-14T00:31:42;193.37;;;59.37;;
21170;SDS011;10743;52.160;20.910;2022-11-14T00:34:27;183.87;;;57.80;;
21170;SDS011;10743;52.160;20.910;2022-11-14T00:37:16;186.73;;;58.43;;
21170;SDS011;10743;52.160;20.910;2022-11-14T00:40:02;185.23;;;58.63;;
21170;SDS011;10743;52.160;20.910;2022-11-14T00:42:53;186.07;;;58.07;;
21170;SDS011;10743;52.160;20.910;2022-11-14T00:45:39;191.00;;;58.87;;
21170;SDS011;10743;52.160;20.910;2022-11-14T00:48:33;189.13;;;58.80;;
21170;SDS011;10743;52.160;20.910;2022-11-14T00:51:21;183.83;;;59.00;;
21170;SDS011;10743;52.160;20.910;2022-11-14T00:54:06;184.57;;;58.13;;
21170;SDS011;10743;52.160;20.910;2022-11-14T00:56:52;189.27;;;57.93;;
21170;SDS011;10743;52.160;20.910;2022-11-14T00:59:37;182.63;;;57.93;;
21170;SDS011;10743;52.160;20.910;2022-11-14T01:02:26;185.47;;;58.23;;
21170;SDS011;10743;52.160;20.910;2022-11-14T01:05:11;189.20;;;58.90;;
21170;SDS011;10743;52.160;20.910;2022-11-14T01:07:58;196.83;;;61.27;;
21170;SDS011;10743;52.160;20.910;2022-11-14T01:10:44;201.67;;;63.60;;
21170;SDS011;10743;52.160;20.910;2022-11-14T01:13:33;190.13;;;60.40;;
21170;SDS011;10743;52.160;20.910;2022-11-14T01:16:19;188.60;;;58.97;;
21170;SDS011;10743;52.160;20.910;2022-11-14T01:19:04;186.40;;;59.10;;
21170;SDS011;10743;52.160;20.910;2022-11-14T01:21:49;182.13;;;58.43;;
21170;SDS011;10743;52.160;20.910;2022-11-14T01:24:35;193.90;;;60.03;;
21170;SDS011;10743;52.160;20.910;2022-11-14T01:27:20;182.60;;;58.43;;
21170;SDS011;10743;52.160;20.910;2022-11-14T01:30:09;195.57;;;60.87;;
21170;SDS011;10743;52.160;20.910;2022-11-14T01:32:57;191.93;;;58.93;;
21170;SDS011;10743;52.160;20.910;2022-11-14T01:35:43;183.50;;;58.70;;
21170;SDS011;10743;52.160;20.910;2022-11-14T01:38:28;192.70;;;60.40;;
21170;SDS011;10743;52.160;20.910;2022-11-14T01:41:16;190.60;;;58.60;;
21170;SDS011;10743;52.160;20.910;2022-11-14T01:44:01;183.57;;;57.83;;
21170;SDS011;10743;52.160;20.910;2022-11-14T01:46:53;188.93;;;59.10;;
21170;SDS011;10743;52.160;20.910;2022-11-14T01:49:41;195.83;;;60.37;;
21170;SDS011;10743;52.160;20.910;2022-11-14T01:52:34;188.63;;;59.87;;
21170;SDS011;10743;52.160;20.910;2022-11-14T01:55:22;189.60;;;59.70;;
21170;SDS011;10743;52.160;20.910;2022-11-14T01:58:07;192.03;;;60.63;;
21170;SDS011;10743;52.160;20.910;2022-11-14T02:00:54;185.03;;;59.30;;
21170;SDS011;10743;52.160;20.910;2022-11-14T02:03:41;189.30;;;60.07;;
21170;SDS011;10743;52.160;20.910;2022-11-14T02:06:30;184.20;;;57.83;;
21170;SDS011;10743;52.160;20.910;2022-11-14T02:09:17;192.47;;;59.40;;
21170;SDS011;10743;52.160;20.910;2022-11-14T02:12:04;185.40;;;58.93;;
21170;SDS011;10743;52.160;20.910;2022-11-14T02:14:54;186.10;;;59.50;;
21170;SDS011;10743;52.160;20.910;2022-11-14T02:17:41;190.87;;;60.07;;
21170;SDS011;10743;52.160;20.910;2022-11-14T02:20:28;183.53;;;58.33;;
21170;SDS011;10743;52.160;20.910;2022-11-14T02:23:28;190.13;;;59.40;;
21170;SDS011;10743;52.160;20.910;2022-11-14T02:26:17;185.20;;;58.70;;
21170;SDS011;10743;52.160;20.910;2022-11-14T02:29:07;185.53;;;59.13;;
21170;SDS011;10743;52.160;20.910;2022-11-14T02:31:55;185.00;;;58.03;;
21170;SDS011;10743;52.160;20.910;2022-11-14T02:34:40;186.30;;;58.20;;
21170;SDS011;10743;52.160;20.910;2022-11-14T02:37:27;187.60;;;58.00;;
21170;SDS011;10743;52.160;20.910;2022-11-14T02:40:12;186.43;;;57.83;;
21170;SDS011;10743;52.160;20.910;2022-11-14T02:42:58;179.87;;;57.37;;
21170;SDS011;10743;52.160;20.910;2022-11-14T02:45:44;183.50;;;57.13;;
21170;SDS011;10743;52.160;20.910;2022-11-14T02:48:31;177.00;;;56.33;;
21170;SDS011;10743;52.160;20.910;2022-11-14T02:51:16;182.03;;;57.40;;
21170;SDS011;10743;52.160;20.910;2022-11-14T02:54:02;187.07;;;58.63;;
21170;SDS011;10743;52.160;20.910;2022-11-14T02:56:47;189.27;;;58.23;;
21170;SDS011;10743;52.160;20.910;2022-11-14T02:59:33;180.27;;;57.57;;
21170;SDS011;10743;52.160;20.910;2022-11-14T03:02:18;185.27;;;57.97;;
21170;SDS011;10743;52.160;20.910;2022-11-14T03:05:04;179.87;;;56.83;;
21170;SDS011;10743;52.160;20.910;2022-11-14T03:07:53;189.73;;;58.90;;
21170;SDS011;10743;52.160;20.910;2022-11-14T03:10:39;185.30;;;57.30;;
21170;SDS011;10743;52.160;20.910;2022-11-14T03:13:27;178.30;;;56.83;;
21170;SDS011;10743;52.160;20.910;2022-11-14T03:16:14;185.27;;;57.87;;
21170;SDS011;10743;52.160;20.910;2022-11-14T03:18:59;180.70;;;56.90;;
21170;SDS011;10743;52.160;20.910;2022-11-14T03:21:44;185.80;;;56.77;;
21170;SDS011;10743;52.160;20.910;2022-11-14T03:24:30;178.20;;;56.60;;
21170;SDS011;10743;52.160;20.910;2022-11-14T03:27:15;184.67;;;57.37;;
21170;SDS011;10743;52.160;20.910;2022-11-14T03:30:01;173.47;;;55.00;;
21170;SDS011;10743;52.160;20.910;2022-11-14T03:32:47;184.73;;;56.57;;
21170;SDS011;10743;52.160;20.910;2022-11-14T03:35:35;177.97;;;55.87;;
21170;SDS011;10743;52.160;20.910;2022-11-14T03:38:26;175.47;;;55.10;;
21170;SDS011;10743;52.160;20.910;2022-11-14T03:41:12;185.57;;;55.80;;
21170;SDS011;10743;52.160;20.910;2022-11-14T03:44:00;174.67;;;55.13;;
21170;SDS011;10743;52.160;20.910;2022-11-14T03:46:46;176.33;;;55.17;;
21170;SDS011;10743;52.160;20.910;2022-11-14T03:49:37;176.60;;;55.57;;
21170;SDS011;10743;52.160;20.910;2022-11-14T03:52:25;178.00;;;56.10;;
21170;SDS011;10743;52.160;20.910;2022-11-14T03:55:10;175.40;;;55.73;;
21170;SDS011;10743;52.160;20.910;2022-11-14T03:57:56;176.50;;;56.20;;
21170;SDS011;10743;52.160;20.910;2022-11-14T04:00:42;181.10;;;56.90;;
21170;SDS011;10743;52.160;20.910;2022-11-14T04:03:34;172.50;;;55.10;;
21170;SDS011;10743;52.160;20.910;2022-11-14T04:06:21;181.83;;;54.97;;
21170;SDS011;10743;52.160;20.910;2022-11-14T04:09:06;177.43;;;54.10;;
21170;SDS011;10743;52.160;20.910;2022-11-14T04:11:53;177.03;;;54.93;;
21170;SDS011;10743;52.160;20.910;2022-11-14T04:14:39;176.50;;;54.60;;
21170;SDS011;10743;52.160;20.910;2022-11-14T04:17:27;174.50;;;54.63;;
21170;SDS011;10743;52.160;20.910;2022-11-14T04:20:23;176.30;;;54.23;;
21170;SDS011;10743;52.160;20.910;2022-11-14T04:23:09;176.57;;;54.30;;
21170;SDS011;10743;52.160;20.910;2022-11-14T04:25:55;178.43;;;54.77;;
21170;SDS011;10743;52.160;20.910;2022-11-14T04:28:40;169.60;;;53.43;;
21170;SDS011;10743;52.160;20.910;2022-11-14T04:31:29;176.17;;;54.10;;
21170;SDS011;10743;52.160;20.910;2022-11-14T04:34:16;171.07;;;53.40;;
21170;SDS011;10743;52.160;20.910;2022-11-14T04:37:02;171.60;;;53.50;;
21170;SDS011;10743;52.160;20.910;2022-11-14T04:39:48;179.00;;;53.83;;
21170;SDS011;10743;52.160;20.910;2022-11-14T04:42:33;175.20;;;53.20;;
21170;SDS011;10743;52.160;20.910;2022-11-14T04:45:19;179.83;;;54.17;;
21170;SDS011;10743;52.160;20.910;2022-11-14T04:48:07;171.20;;;53.37;;
21170;SDS011;10743;52.160;20.910;2022-11-14T04:50:56;177.73;;;54.53;;
21170;SDS011;10743;52.160;20.910;2022-11-14T04:53:41;177.03;;;54.23;;
21170;SDS011;10743;52.160;20.910;2022-11-14T04:56:29;175.77;;;54.17;;
21170;SDS011;10743;52.160;20.910;2022-11-14T04:59:21;174.23;;;53.83;;
21170;SDS011;10743;52.160;20.910;2022-11-14T05:02:07;173.67;;;53.67;;
21170;SDS011;10743;52.160;20.910;2022-11-14T05:04:55;178.93;;;54.60;;
21170;SDS011;10743;52.160;20.910;2022-11-14T05:07:41;172.70;;;52.97;;
21170;SDS011;10743;52.160;20.910;2022-11-14T05:10:26;174.37;;;53.23;;
21170;SDS011;10743;52.160;20.910;2022-11-14T05:13:12;172.70;;;53.57;;
21170;SDS011;10743;52.160;20.910;2022-11-14T05:16:00;172.67;;;53.23;;
21170;SDS011;10743;52.160;20.910;2022-11-14T05:18:45;175.77;;;53.17;;
21170;SDS011;10743;52.160;20.910;2022-11-14T05:21:37;178.43;;;53.70;;
21170;SDS011;10743;52.160;20.910;2022-11-14T05:24:25;185.43;;;54.57;;
21170;SDS011;10743;52.160;20.910;2022-11-14T05:27:12;168.60;;;52.97;;
21170;SDS011;10743;52.160;20.910;2022-11-14T05:29:58;174.23;;;53.53;;
21170;SDS011;10743;52.160;20.910;2022-11-14T05:32:44;170.50;;;52.93;;
21170;SDS011;10743;52.160;20.910;2022-11-14T05:35:29;170.87;;;52.80;;
21170;SDS011;10743;52.160;20.910;2022-11-14T05:38:14;171.03;;;53.40;;
21170;SDS011;10743;52.160;20.910;2022-11-14T05:41:07;167.67;;;52.53;;
21170;SDS011;10743;52.160;20.910;2022-11-14T05:43:57;173.13;;;53.07;;
21170;SDS011;10743;52.160;20.910;2022-11-14T05:46:46;173.57;;;53.23;;
21170;SDS011;10743;52.160;20.910;2022-11-14T05:49:31;175.60;;;53.97;;
21170;SDS011;10743;52.160;20.910;2022-11-14T05:52:16;173.57;;;53.63;;
21170;SDS011;10743;52.160;20.910;2022-11-14T05:55:02;174.40;;;54.40;;
21170;SDS011;10743;52.160;20.910;2022-11-14T05:57:47;168.73;;;53.33;;
21170;SDS011;10743;52.160;20.910;2022-11-14T06:00:33;176.47;;;54.67;;
21170;SDS011;10743;52.160;20.910;2022-11-14T06:03:31;178.40;;;54.40;;
21170;SDS011;10743;52.160;20.910;2022-11-14T06:06:19;173.47;;;54.13;;
21170;SDS011;10743;52.160;20.910;2022-11-14T06:09:08;175.97;;;54.37;;
21170;SDS011;10743;52.160;20.910;2022-11-14T06:11:55;179.33;;;54.27;;
21170;SDS011;10743;52.160;20.910;2022-11-14T06:14:40;172.00;;;53.80;;
21170;SDS011;10743;52.160;20.910;2022-11-14T06:17:26;183.87;;;55.37;;
21170;SDS011;10743;52.160;20.910;2022-11-14T06:20:11;180.87;;;55.40;;
21170;SDS011;10743;52.160;20.910;2022-11-14T06:23:00;182.43;;;55.33;;
21170;SDS011;10743;52.160;20.910;2022-11-14T06:25:46;177.13;;;54.37;;
21170;SDS011;10743;52.160;20.910;2022-11-14T06:28:32;177.03;;;54.83;;
21170;SDS011;10743;52.160;20.910;2022-11-14T06:31:18;172.83;;;54.13;;
21170;SDS011;10743;52.160;20.910;2022-11-14T06:34:05;174.17;;;54.60;;
21170;SDS011;10743;52.160;20.910;2022-11-14T06:36:56;175.53;;;54.77;;
21170;SDS011;10743;52.160;20.910;2022-11-14T06:39:42;176.67;;;54.73;;
21170;SDS011;10743;52.160;20.910;2022-11-14T06:42:28;175.80;;;54.07;;
21170;SDS011;10743;52.160;20.910;2022-11-14T06:45:13;180.07;;;55.47;;
21170;SDS011;10743;52.160;20.910;2022-11-14T06:47:58;175.53;;;54.47;;
21170;SDS011;10743;52.160;20.910;2022-11-14T06:50:49;179.53;;;54.40;;
21170;SDS011;10743;52.160;20.910;2022-11-14T06:53:41;174.73;;;54.80;;
21170;SDS011;10743;52.160;20.910;2022-11-14T06:56:27;177.40;;;54.77;;
21170;SDS011;10743;52.160;20.910;2022-11-14T06:59:12;175.00;;;53.63;;
21170;SDS011;10743;52.160;20.910;2022-11-14T07:02:02;179.23;;;54.93;;
21170;SDS011;10743;52.160;20.910;2022-11-14T07:04:57;174.37;;;54.00;;
21170;SDS011;10743;52.160;20.910;2022-11-14T07:07:42;176.17;;;54.93;;
21170;SDS011;10743;52.160;20.910;2022-11-14T07:10:27;179.17;;;54.80;;
21170;SDS011;10743;52.160;20.910;2022-11-14T07:13:13;175.17;;;53.83;;
21170;SDS011;10743;52.160;20.910;2022-11-14T07:15:58;181.77;;;54.80;;
21170;SDS011;10743;52.160;20.910;2022-11-14T07:18:44;172.23;;;53.40;;
21170;SDS011;10743;52.160;20.910;2022-11-14T07:21:30;179.00;;;54.07;;
21170;SDS011;10743;52.160;20.910;2022-11-14T07:24:17;178.50;;;54.43;;
21170;SDS011;10743;52.160;20.910;2022-11-14T07:27:02;173.33;;;53.80;;
21170;SDS011;10743;52.160;20.910;2022-11-14T07:29:52;170.13;;;53.10;;
21170;SDS011;10743;52.160;20.910;2022-11-14T07:32:38;170.70;;;53.40;;
21170;SDS011;10743;52.160;20.910;2022-11-14T07:35:24;175.60;;;53.50;;
21170;SDS011;10743;52.160;20.910;2022-11-14T07:38:10;173.80;;;53.90;;
21170;SDS011;10743;52.160;20.910;2022-11-14T07:40:56;179.67;;;54.53;;
21170;SDS011;10743;52.160;20.910;2022-11-14T07:43:44;171.33;;;53.70;;
21170;SDS011;10743;52.160;20.910;2022-11-14T07:46:29;180.30;;;54.13;;
21170;SDS011;10743;52.160;20.910;2022-11-14T07:49:18;171.43;;;53.13;;
21170;SDS011;10743;52.160;20.910;2022-11-14T07:52:05;171.33;;;52.87;;
21170;SDS011;10743;52.160;20.910;2022-11-14T07:54:51;171.43;;;53.83;;
21170;SDS011;10743;52.160;20.910;2022-11-14T07:57:36;169.47;;;52.90;;
21170;SDS011;10743;52.160;20.910;2022-11-14T08:00:28;169.20;;;52.17;;
21170;SDS011;10743;52.160;20.910;2022-11-14T08:03:13;172.60;;;52.63;;
21170;SDS011;10743;52.160;20.910;2022-11-14T08:06:03;176.07;;;53.00;;
21170;SDS011;10743;52.160;20.910;2022-11-14T08:08:56;166.17;;;51.83;;
21170;SDS011;10743;52.160;20.910;2022-11-14T08:11:41;167.80;;;51.70;;
21170;SDS011;10743;52.160;20.910;2022-11-14T08:14:33;178.23;;;53.80;;
21170;SDS011;10743;52.160;20.910;2022-11-14T08:17:19;173.40;;;53.20;;
21170;SDS011;10743;52.160;20.910;2022-11-14T08:20:07;179.60;;;53.37;;
21170;SDS011;10743;52.160;20.910;2022-11-14T08:23:00;170.90;;;52.47;;
21170;SDS011;10743;52.160;20.910;2022-11-14T08:25:47;169.57;;;52.20;;
21170;SDS011;10743;52.160;20.910;2022-11-14T08:28:32;172.63;;;52.70;;
21170;SDS011;10743;52.160;20.910;2022-11-14T08:31:20;171.90;;;52.97;;
21170;SDS011;10743;52.160;20.910;2022-11-14T08:34:08;180.27;;;53.97;;
21170;SDS011;10743;52.160;20.910;2022-11-14T08:36:53;170.13;;;53.03;;
21170;SDS011;10743;52.160;20.910;2022-11-14T08:39:40;170.07;;;52.77;;
21170;SDS011;10743;52.160;20.910;2022-11-14T08:42:29;174.40;;;53.47;;
21170;SDS011;10743;52.160;20.910;2022-11-14T08:45:18;168.67;;;52.93;;
21170;SDS011;10743;52.160;20.910;2022-11-14T08:48:03;177.83;;;54.10;;
21170;SDS011;10743;52.160;20.910;2022-11-14T08:50:50;172.37;;;53.57;;
21170;SDS011;10743;52.160;20.910;2022-11-14T08:53:35;183.77;;;55.87;;
21170;SDS011;10743;52.160;20.910;2022-11-14T08:56:21;173.97;;;54.20;;
21170;SDS011;10743;52.160;20.910;2022-11-14T08:59:10;175.17;;;54.17;;
21170;SDS011;10743;52.160;20.910;2022-11-14T09:01:55;175.07;;;54.23;;
21170;SDS011;10743;52.160;20.910;2022-11-14T09:04:41;174.80;;;54.20;;
21170;SDS011;10743;52.160;20.910;2022-11-14T09:07:29;172.20;;;53.40;;
21170;SDS011;10743;52.160;20.910;2022-11-14T09:10:16;175.23;;;53.60;;
21170;SDS011;10743;52.160;20.910;2022-11-14T09:13:03;180.77;;;54.33;;
21170;SDS011;10743;52.160;20.910;2022-11-14T09:15:48;172.57;;;53.00;;
21170;SDS011;10743;52.160;20.910;2022-11-14T09:18:34;184.40;;;54.73;;
21170;SDS011;10743;52.160;20.910;2022-11-14T09:21:22;180.77;;;55.20;;
21170;SDS011;10743;52.160;20.910;2022-11-14T09:24:08;192.50;;;58.27;;
21170;SDS011;10743;52.160;20.910;2022-11-14T09:26:54;184.17;;;54.87;;
21170;SDS011;10743;52.160;20.910;2022-11-14T09:29:41;178.23;;;53.77;;
21170;SDS011;10743;52.160;20.910;2022-11-14T09:32:26;179.57;;;53.67;;
21170;SDS011;10743;52.160;20.910;2022-11-14T09:35:13;175.47;;;53.10;;
21170;SDS011;10743;52.160;20.910;2022-11-14T09:38:03;182.60;;;54.17;;
21170;SDS011;10743;52.160;20.910;2022-11-14T09:47:37;175.83;;;53.27;;
21170;SDS011;10743;52.160;20.910;2022-11-14T09:50:31;179.43;;;54.00;;
21170;SDS011;10743;52.160;20.910;2022-11-14T09:53:24;177.13;;;54.00;;
21170;SDS011;10743;52.160;20.910;2022-11-14T09:56:19;185.50;;;56.13;;
21170;SDS011;10743;52.160;20.910;2022-11-14T09:59:09;176.00;;;54.47;;
21170;SDS011;10743;52.160;20.910;2022-11-14T10:02:00;180.17;;;56.07;;
21170;SDS011;10743;52.160;20.910;2022-11-14T10:08:41;180.17;;;56.00;;
21170;SDS011;10743;52.160;20.910;2022-11-14T10:11:46;183.93;;;54.53;;
21170;SDS011;10743;52.160;20.910;2022-11-14T10:15:14;179.27;;;54.47;;
21170;SDS011;10743;52.160;20.910;2022-11-14T10:18:24;180.83;;;55.00;;
21170;SDS011;10743;52.160;20.910;2022-11-14T10:21:38;183.23;;;54.60;;
21170;SDS011;10743;52.160;20.910;2022-11-14T10:25:02;176.63;;;54.13;;
21170;SDS011;10743;52.160;20.910;2022-11-14T10:34:51;183.40;;;54.73;;
21170;SDS011;10743;52.160;20.910;2022-11-14T10:38:03;179.93;;;55.03;;
21170;SDS011;10743;52.160;20.910;2022-11-14T10:41:23;179.97;;;54.67;;
21170;SDS011;10743;52.160;20.910;2022-11-14T10:44:31;186.57;;;55.77;;
21170;SDS011;10743;52.160;20.910;2022-11-14T10:47:34;189.37;;;56.10;;
21170;SDS011;10743;52.160;20.910;2022-11-14T10:50:27;185.57;;;55.60;;
21170;SDS011;10743;52.160;20.910;2022-11-14T10:53:49;183.93;;;55.00;;
21170;SDS011;10743;52.160;20.910;2022-11-14T10:56:51;172.80;;;53.43;;
21170;SDS011;10743;52.160;20.910;2022-11-14T10:59:38;174.90;;;53.50;;
21170;SDS011;10743;52.160;20.910;2022-11-14T11:02:24;178.53;;;53.90;;
21170;SDS011;10743;52.160;20.910;2022-11-14T11:05:16;175.00;;;52.97;;
21170;SDS011;10743;52.160;20.910;2022-11-14T11:08:05;169.90;;;52.23;;
21170;SDS011;10743;52.160;20.910;2022-11-14T11:11:27;171.77;;;52.53;;
21170;SDS011;10743;52.160;20.910;2022-11-14T11:14:16;168.87;;;52.43;;
21170;SDS011;10743;52.160;20.910;2022-11-14T11:17:07;169.87;;;52.33;;
21170;SDS011;10743;52.160;20.910;2022-11-14T11:19:57;175.57;;;53.20;;
21170;SDS011;10743;52.160;20.910;2022-11-14T11:23:17;176.20;;;53.80;;
21170;SDS011;10743;52.160;20.910;2022-11-14T11:32:00;176.00;;;53.47;;
21170;SDS011;10743;52.160;20.910;2022-11-14T11:34:59;175.83;;;52.93;;
21170;SDS011;10743;52.160;20.910;2022-11-14T11:38:01;171.13;;;52.60;;
21170;SDS011;10743;52.160;20.910;2022-11-14T11:40:50;170.90;;;52.43;;
21170;SDS011;10743;52.160;20.910;2022-11-14T11:43:47;177.63;;;52.87;;
21170;SDS011;10743;52.160;20.910;2022-11-14T11:46:44;171.50;;;51.93;;
21170;SDS011;10743;52.160;20.910;2022-11-14T11:49:42;172.47;;;53.03;;
21170;SDS011;10743;52.160;20.910;2022-11-14T11:55:36;178.27;;;53.73;;
21170;SDS011;10743;52.160;20.910;2022-11-14T12:01:24;182.50;;;55.73;;
21170;SDS011;10743;52.160;20.910;2022-11-14T12:04:09;184.53;;;56.77;;
21170;SDS011;10743;52.160;20.910;2022-11-14T12:07:11;186.30;;;57.27;;
21170;SDS011;10743;52.160;20.910;2022-11-14T12:10:04;189.97;;;58.10;;
21170;SDS011;10743;52.160;20.910;2022-11-14T12:13:13;190.93;;;58.50;;
21170;SDS011;10743;52.160;20.910;2022-11-14T12:16:56;191.10;;;59.63;;
21170;SDS011;10743;52.160;20.910;2022-11-14T12:20:07;186.87;;;60.13;;
21170;SDS011;10743;52.160;20.910;2022-11-14T12:26:51;189.77;;;58.73;;
21170;SDS011;10743;52.160;20.910;2022-11-14T12:30:13;177.80;;;56.23;;
21170;SDS011;10743;52.160;20.910;2022-11-14T12:36:18;176.83;;;55.43;;
21170;SDS011;10743;52.160;20.910;2022-11-14T12:39:25;176.60;;;55.83;;
21170;SDS011;10743;52.160;20.910;2022-11-14T12:42:13;182.83;;;56.83;;
21170;SDS011;10743;52.160;20.910;2022-11-14T12:48:31;179.83;;;56.47;;
21170;SDS011;10743;52.160;20.910;2022-11-14T12:54:40;189.10;;;56.87;;
21170;SDS011;10743;52.160;20.910;2022-11-14T12:57:35;183.77;;;57.13;;
21170;SDS011;10743;52.160;20.910;2022-11-14T13:03:33;192.17;;;59.40;;
21170;SDS011;10743;52.160;20.910;2022-11-14T13:06:51;193.50;;;60.20;;
21170;SDS011;10743;52.160;20.910;2022-11-14T13:13:16;188.70;;;58.73;;
21170;SDS011;10743;52.160;20.910;2022-11-14T13:16:25;183.40;;;57.80;;
21170;SDS011;10743;52.160;20.910;2022-11-14T13:19:34;196.53;;;60.67;;
21170;SDS011;10743;52.160;20.910;2022-11-14T13:22:48;193.97;;;58.07;;
21170;SDS011;10743;52.160;20.910;2022-11-14T13:25:33;189.17;;;59.67;;
21170;SDS011;10743;52.160;20.910;2022-11-14T13:34:35;182.60;;;57.87;;
21170;SDS011;10743;52.160;20.910;2022-11-14T13:37:41;186.77;;;58.33;;
21170;SDS011;10743;52.160;20.910;2022-11-14T13:47:56;182.20;;;57.70;;
21170;SDS011;10743;52.160;20.910;2022-11-14T13:51:06;170.20;;;56.27;;
21170;SDS011;10743;52.160;20.910;2022-11-14T13:54:15;173.10;;;57.10;;
21170;SDS011;10743;52.160;20.910;2022-11-14T13:57:06;180.43;;;57.20;;
21170;SDS011;10743;52.160;20.910;2022-11-14T14:00:08;177.90;;;56.80;;
21170;SDS011;10743;52.160;20.910;2022-11-14T14:06:27;174.23;;;56.50;;
21170;SDS011;10743;52.160;20.910;2022-11-14T14:12:52;172.67;;;55.93;;
21170;SDS011;10743;52.160;20.910;2022-11-14T14:16:11;175.37;;;56.83;;
21170;SDS011;10743;52.160;20.910;2022-11-14T14:19:33;181.47;;;57.73;;
21170;SDS011;10743;52.160;20.910;2022-11-14T14:25:23;176.60;;;56.33;;
21170;SDS011;10743;52.160;20.910;2022-11-14T14:28:37;184.50;;;58.70;;
21170;SDS011;10743;52.160;20.910;2022-11-14T14:31:37;177.63;;;56.80;;
21170;SDS011;10743;52.160;20.910;2022-11-14T14:34:29;180.87;;;57.33;;
21170;SDS011;10743;52.160;20.910;2022-11-14T14:37:19;179.57;;;57.83;;
21170;SDS011;10743;52.160;20.910;2022-11-14T14:40:21;185.27;;;57.70;;
21170;SDS011;10743;52.160;20.910;2022-11-14T14:43:20;185.80;;;59.23;;
21170;SDS011;10743;52.160;20.910;2022-11-14T14:46:27;184.13;;;58.20;;
21170;SDS011;10743;52.160;20.910;2022-11-14T14:49:22;183.33;;;62.60;;
21170;SDS011;10743;52.160;20.910;2022-11-14T14:52:19;190.23;;;60.30;;
21170;SDS011;10743;52.160;20.910;2022-11-14T14:55:29;188.17;;;60.80;;
21170;SDS011;10743;52.160;20.910;2022-11-14T15:01:14;178.07;;;58.87;;
21170;SDS011;10743;52.160;20.910;2022-11-14T15:04:10;186.47;;;57.90;;
21170;SDS011;10743;52.160;20.910;2022-11-14T15:06:59;182.10;;;58.27;;
21170;SDS011;10743;52.160;20.910;2022-11-14T15:09:52;208.85;;;64.93;;
21170;SDS011;10743;52.160;20.910;2022-11-14T15:12:39;183.90;;;58.57;;
21170;SDS011;10743;52.160;20.910;2022-11-14T15:15:26;186.20;;;59.37;;
21170;SDS011;10743;52.160;20.910;2022-11-14T15:18:19;188.37;;;60.50;;
21170;SDS011;10743;52.160;20.910;2022-11-14T15:21:14;190.37;;;60.17;;
21170;SDS011;10743;52.160;20.910;2022-11-14T15:24:19;192.33;;;61.77;;
21170;SDS011;10743;52.160;20.910;2022-11-14T15:27:12;215.93;;;70.43;;
21170;SDS011;10743;52.160;20.910;2022-11-14T15:30:03;198.20;;;66.90;;
21170;SDS011;10743;52.160;20.910;2022-11-14T15:33:04;189.47;;;61.37;;
21170;SDS011;10743;52.160;20.910;2022-11-14T15:36:16;185.67;;;61.03;;
21170;SDS011;10743;52.160;20.910;2022-11-14T15:48:22;189.17;;;59.43;;
21170;SDS011;10743;52.160;20.910;2022-11-14T15:51:07;191.60;;;60.73;;
21170;SDS011;10743;52.160;20.910;2022-11-14T15:53:53;182.17;;;59.30;;
21170;SDS011;10743;52.160;20.910;2022-11-14T15:56:38;180.93;;;58.57;;
21170;SDS011;10743;52.160;20.910;2022-11-14T15:59:24;189.07;;;59.87;;
21170;SDS011;10743;52.160;20.910;2022-11-14T16:02:12;180.23;;;58.43;;
21170;SDS011;10743;52.160;20.910;2022-11-14T16:05:04;182.27;;;59.43;;
21170;SDS011;10743;52.160;20.910;2022-11-14T16:07:50;183.00;;;59.03;;
21170;SDS011;10743;52.160;20.910;2022-11-14T16:10:38;183.73;;;59.13;;
21170;SDS011;10743;52.160;20.910;2022-11-14T16:13:24;185.47;;;58.27;;
21170;SDS011;10743;52.160;20.910;2022-11-14T16:16:15;178.83;;;58.30;;
21170;SDS011;10743;52.160;20.910;2022-11-14T16:19:01;192.53;;;59.47;;
21170;SDS011;10743;52.160;20.910;2022-11-14T16:21:47;183.87;;;59.40;;
21170;SDS011;10743;52.160;20.910;2022-11-14T16:24:33;181.10;;;58.23;;
21170;SDS011;10743;52.160;20.910;2022-11-14T16:27:20;182.13;;;58.10;;
21170;SDS011;10743;52.160;20.910;2022-11-14T16:30:05;178.27;;;58.00;;
21170;SDS011;10743;52.160;20.910;2022-11-14T16:32:54;184.23;;;59.03;;
21170;SDS011;10743;52.160;20.910;2022-11-14T16:35:39;180.77;;;58.27;;
21170;SDS011;10743;52.160;20.910;2022-11-14T16:38:26;177.83;;;57.50;;
21170;SDS011;10743;52.160;20.910;2022-11-14T16:41:12;179.17;;;58.20;;
21170;SDS011;10743;52.160;20.910;2022-11-14T16:43:58;182.17;;;58.33;;
21170;SDS011;10743;52.160;20.910;2022-11-14T16:46:46;181.23;;;57.87;;
21170;SDS011;10743;52.160;20.910;2022-11-14T16:49:32;184.67;;;60.03;;
21170;SDS011;10743;52.160;20.910;2022-11-14T16:52:17;173.67;;;57.37;;
21170;SDS011;10743;52.160;20.910;2022-11-14T16:55:07;174.63;;;58.10;;
21170;SDS011;10743;52.160;20.910;2022-11-14T16:57:54;179.40;;;59.03;;
21170;SDS011;10743;52.160;20.910;2022-11-14T17:00:41;182.00;;;58.47;;
21170;SDS011;10743;52.160;20.910;2022-11-14T17:03:27;184.00;;;58.93;;
21170;SDS011;10743;52.160;20.910;2022-11-14T17:06:17;183.87;;;59.03;;
21170;SDS011;10743;52.160;20.910;2022-11-14T17:09:02;179.50;;;58.30;;
21170;SDS011;10743;52.160;20.910;2022-11-14T17:11:47;181.23;;;59.10;;
21170;SDS011;10743;52.160;20.910;2022-11-14T17:14:33;184.97;;;61.03;;
21170;SDS011;10743;52.160;20.910;2022-11-14T17:17:20;207.47;;;64.77;;
21170;SDS011;10743;52.160;20.910;2022-11-14T17:20:05;188.00;;;60.40;;
21170;SDS011;10743;52.160;20.910;2022-11-14T17:22:52;200.97;;;62.93;;
21170;SDS011;10743;52.160;20.910;2022-11-14T17:25:41;183.73;;;58.47;;
21170;SDS011;10743;52.160;20.910;2022-11-14T17:28:27;179.07;;;58.77;;
21170;SDS011;10743;52.160;20.910;2022-11-14T17:31:14;177.60;;;60.17;;
21170;SDS011;10743;52.160;20.910;2022-11-14T17:34:00;184.03;;;60.37;;